Petrified Forest National Park, AZ

10:41 PM MST on January 31, 2015 (GMT -0700)
Torreon | Change Station
CLOSE
Current Station
Personal Weather Station
Location: Show Low, AZ
Elevation: 6391 ft
Nearby Weather Stations

Elev 6391 ft 34.25 °N, 110.09 °W | Updated 1 minute ago

Overcast
Overcast
37.5 °F
Feels Like 38 °F
N
0.0
Wind Variable Wind from NNE
Gusts 0.0 mph

Today
High -- | Low -- °F
--% Chance of Precip.
Yesterday
High -- | Low -- °F
Precip. -- in
7:18 AM 5:49 PM
Waxing Gibbous, 93% visible
Pressure 30.02 in
Visibility 10.0 miles
Clouds Few 2000 ft
Few 2600 ft
Scattered Clouds 3300 ft
Windchill 38 °F
Dew Point 36 °F
Humidity 95%
Rainfall 0.00 in
Snow Depth Not available.
UV 0 out of 12
Pollen .60 out of 12
Air Quality Not available.
Flu Activity Not available.
METAR KSOW 010535Z AUTO 00000KT 10SM FEW020 FEW026 SCT033 02/02 A3002 RMK AO2

More Conditions Fewer Conditions

Pressure 30.02 in
Visibility 10.0 miles
Clouds Few 2000 ft
Few 2600 ft
Scattered Clouds 3300 ft
Windchill 38 °F
Dew Point 36 °F
Humidity 95%
Rainfall 0.00 in
Snow Depth Not available.
UV 0 out of 12
Pollen .60 out of 12
Air Quality Not available.
Flu Activity Not available.
METAR KSOW 010535Z AUTO 00000KT 10SM FEW020 FEW026 SCT033 02/02 A3002 RMK AO2

More Conditions Fewer Conditions

10-Day Weather Forecast

Almanac

Astronomy

Jan. 31, 2015 Rise Set
Actual Time
Civil Twilight
Nautical Twilight
Astronomical Twilight
Moon
Length of Visible Light
Length of Day
Tomorrow will be .
, % of the Moon is Illuminated

Today's Extremes

State Highs State Lows

Community

WunderPhotos

Upload Photos

1,792,316 photos uploaded!

WunderBlogs® & News

Nearby

Air Quality

  Air Quality AQ Index Pollutant
Not available.

Snow Depth

Station Depth Elevation

Earthquake Activity

City Distance Mag. Time & Date
Minimum magnitude displayed is 2.5.

Coastal Water Temperatures

Place Temperature

Nearby Weather Stations